Aviation Digital Data Service (ADDS)

Output produced by METARs form (0848 UTC 24 March 2019)
found at http://www.aviationweather.gov/metar/data/
 
METAR text: FCPP 240800Z 16004KT 120V200 9999 SCT014 FEW030CB 30/24 Q1011 RETS NOSIG
Conditions at: FCPP (POINTE-NOIRE , CG) observed 0800 UTC 24 March 2019
Temperature: 30.0°C (86°F)
Dewpoint: 24.0°C (75°F) [RH = 70%]
Pressure (altimeter): 29.85 inches Hg (1011.0 mb)
Winds: from the SSE (160 degrees) at 5 MPH (4 knots; 2.1 m/s)
Visibility: 6 or more miles (10+ km)
Ceiling: at least 12,000 feet AGL
Clouds: scattered clouds at 1400 feet AGL
few clouds at 3000 feet AGL
Weather: no significant weather observed at this time

METAR text: FCPP 240700Z 12003KT 6000 TS SCT013 FEW030CB 26/26 Q1010 BECMG NSW
Conditions at: FCPP (POINTE-NOIRE , CG) observed 0700 UTC 24 March 2019
Temperature: 26.0°C (79°F)
Dewpoint: 26.0°C (79°F) [RH = 100%]
Pressure (altimeter): 29.82 inches Hg (1010.0 mb)
Winds: from the ESE (120 degrees) at 3 MPH (3 knots; 1.5 m/s)
Visibility: 4 miles ( 6 km)
Ceiling: at least 12,000 feet AGL
Clouds: scattered clouds at 1300 feet AGL
few clouds at 3000 feet AGL
Weather: TS  (thunderstorm)

METAR text: FCPP 240600Z 07004KT 050V130 6000 SCT010 SCT023 FEW030CB 25/25 Q1010 NOSIG
Conditions at: FCPP (POINTE-NOIRE , CG) observed 0600 UTC 24 March 2019
Temperature: 25.0°C (77°F)
Dewpoint: 25.0°C (77°F) [RH = 100%]
Pressure (altimeter): 29.82 inches Hg (1010.0 mb)
Winds: from the ENE (70 degrees) at 5 MPH (4 knots; 2.1 m/s)
Visibility: 4 miles ( 6 km)
Ceiling: at least 12,000 feet AGL
Clouds: scattered clouds at 1000 feet AGL
scattered clouds at 2300 feet AGL
few clouds at 3000 feet AGL
Weather: no significant weather observed at this time

METAR text: FCPP 240100Z 21002KT 8000 SCT010 25/24 Q1009 NOSIG
Conditions at: FCPP (POINTE-NOIRE , CG) observed 0100 UTC 24 March 2019
Temperature: 25.0°C (77°F)
Dewpoint: 24.0°C (75°F) [RH = 94%]
Pressure (altimeter): 29.79 inches Hg (1009.0 mb)
Winds: from the SSW (210 degrees) at 2 MPH (2 knots; 1.0 m/s)
Visibility: 5 miles ( 8 km)
Ceiling: at least 12,000 feet AGL
Clouds: scattered clouds at 1000 feet AGL
Weather: no significant weather observed at this time

METAR text: FCPP 240000Z 12002KT 9999 FEW010 25/24 Q1010 NOSIG
Conditions at: FCPP (POINTE-NOIRE , CG) observed 0000 UTC 24 March 2019
Temperature: 25.0°C (77°F)
Dewpoint: 24.0°C (75°F) [RH = 94%]
Pressure (altimeter): 29.82 inches Hg (1010.0 mb)
Winds: from the ESE (120 degrees) at 2 MPH (2 knots; 1.0 m/s)
Visibility: 6 or more miles (10+ km)
Ceiling: at least 12,000 feet AGL
Clouds: few clouds at 1000 feet AGL
Weather: no significant weather observed at this time

METAR text: FCPP 232300Z 13004KT 6000 FEW010 25/25 Q1010 NOSIG
Conditions at: FCPP (POINTE-NOIRE , CG) observed 2300 UTC 23 March 2019
Temperature: 25.0°C (77°F)
Dewpoint: 25.0°C (77°F) [RH = 100%]
Pressure (altimeter): 29.82 inches Hg (1010.0 mb)
Winds: from the SE (130 degrees) at 5 MPH (4 knots; 2.1 m/s)
Visibility: 4 miles ( 6 km)
Ceiling: at least 12,000 feet AGL
Clouds: few clouds at 1000 feet AGL
Weather: no significant weather observed at this time

METAR text: FCPP 232200Z 12003KT 6000 FEW010 26/25 Q1010 NOSIG
Conditions at: FCPP (POINTE-NOIRE , CG) observed 2200 UTC 23 March 2019
Temperature: 26.0°C (79°F)
Dewpoint: 25.0°C (77°F) [RH = 94%]
Pressure (altimeter): 29.82 inches Hg (1010.0 mb)
Winds: from the ESE (120 degrees) at 3 MPH (3 knots; 1.5 m/s)
Visibility: 4 miles ( 6 km)
Ceiling: at least 12,000 feet AGL
Clouds: few clouds at 1000 feet AGL
Weather: no significant weather observed at this time

METAR text: FCPP 232100Z 10002KT 9999 FEW010 26/25 Q1010 NOSIG
Conditions at: FCPP (POINTE-NOIRE , CG) observed 2100 UTC 23 March 2019
Temperature: 26.0°C (79°F)
Dewpoint: 25.0°C (77°F) [RH = 94%]
Pressure (altimeter): 29.82 inches Hg (1010.0 mb)
Winds: from the E (100 degrees) at 2 MPH (2 knots; 1.0 m/s)
Visibility: 6 or more miles (10+ km)
Ceiling: at least 12,000 feet AGL
Clouds: few clouds at 1000 feet AGL
Weather: no significant weather observed at this time

METAR text: FCPP 232000Z 13003KT 9999 FEW010 FEW030CB 27/25 Q1009 NOSIG
Conditions at: FCPP (POINTE-NOIRE , CG) observed 2000 UTC 23 March 2019
Temperature: 27.0°C (81°F)
Dewpoint: 25.0°C (77°F) [RH = 89%]
Pressure (altimeter): 29.79 inches Hg (1009.0 mb)
Winds: from the SE (130 degrees) at 3 MPH (3 knots; 1.5 m/s)
Visibility: 6 or more miles (10+ km)
Ceiling: at least 12,000 feet AGL
Clouds: few clouds at 1000 feet AGL
few clouds at 3000 feet AGL
Weather: no significant weather observed at this time

METAR text: FCPP 231900Z 18004KT 9999 FEW011 FEW030CB 27/25 Q1008 NOSIG
Conditions at: FCPP (POINTE-NOIRE , CG) observed 1900 UTC 23 March 2019
Temperature: 27.0°C (81°F)
Dewpoint: 25.0°C (77°F) [RH = 89%]
Pressure (altimeter): 29.76 inches Hg (1008.0 mb)
Winds: from the S (180 degrees) at 5 MPH (4 knots; 2.1 m/s)
Visibility: 6 or more miles (10+ km)
Ceiling: at least 12,000 feet AGL
Clouds: few clouds at 1100 feet AGL
few clouds at 3000 feet AGL
Weather: no significant weather observed at this time

METAR text: FCPP 231800Z 15004KT 9999 FEW012 FEW028CB 27/25 Q1008 NOSIG
Conditions at: FCPP (POINTE-NOIRE , CG) observed 1800 UTC 23 March 2019
Temperature: 27.0°C (81°F)
Dewpoint: 25.0°C (77°F) [RH = 89%]
Pressure (altimeter): 29.76 inches Hg (1008.0 mb)
Winds: from the SSE (150 degrees) at 5 MPH (4 knots; 2.1 m/s)
Visibility: 6 or more miles (10+ km)
Ceiling: at least 12,000 feet AGL
Clouds: few clouds at 1200 feet AGL
few clouds at 2800 feet AGL
Weather: no significant weather observed at this time

METAR text: FCPP 231700Z 18006KT 9999 FEW015 FEW028CB 28/24 Q1008 NOSIG
Conditions at: FCPP (POINTE-NOIRE , CG) observed 1700 UTC 23 March 2019
Temperature: 28.0°C (82°F)
Dewpoint: 24.0°C (75°F) [RH = 79%]
Pressure (altimeter): 29.76 inches Hg (1008.0 mb)
Winds: from the S (180 degrees) at 7 MPH (6 knots; 3.1 m/s)
Visibility: 6 or more miles (10+ km)
Ceiling: at least 12,000 feet AGL
Clouds: few clouds at 1500 feet AGL
few clouds at 2800 feet AGL
Weather: no significant weather observed at this time

METAR text: FCPP 231600Z 18011KT 9999 FEW015 FEW026TCU 29/23 Q1007 NOSIG
Conditions at: FCPP (POINTE-NOIRE , CG) observed 1600 UTC 23 March 2019
Temperature: 29.0°C (84°F)
Dewpoint: 23.0°C (73°F) [RH = 70%]
Pressure (altimeter): 29.73 inches Hg (1007.0 mb)
Winds: from the S (180 degrees) at 13 MPH (11 knots; 5.7 m/s)
Visibility: 6 or more miles (10+ km)
Ceiling: at least 12,000 feet AGL
Clouds: few clouds at 1500 feet AGL
few clouds at 2600 feet AGL
Weather: no significant weather observed at this time

METAR text: FCPP 231500Z 14006KT 110V200 9999 FEW016 30/24 Q1007 NOSIG
Conditions at: FCPP (POINTE-NOIRE , CG) observed 1500 UTC 23 March 2019
Temperature: 30.0°C (86°F)
Dewpoint: 24.0°C (75°F) [RH = 70%]
Pressure (altimeter): 29.73 inches Hg (1007.0 mb)
Winds: from the SE (140 degrees) at 7 MPH (6 knots; 3.1 m/s)
Visibility: 6 or more miles (10+ km)
Ceiling: at least 12,000 feet AGL
Clouds: few clouds at 1600 feet AGL
Weather: no significant weather observed at this time

METAR text: FCPP 231400Z 16009KT 9999 FEW016 SCT026 31/23 Q1007 NOSIG
Conditions at: FCPP (POINTE-NOIRE , CG) observed 1400 UTC 23 March 2019
Temperature: 31.0°C (88°F)
Dewpoint: 23.0°C (73°F) [RH = 63%]
Pressure (altimeter): 29.73 inches Hg (1007.0 mb)
Winds: from the SSE (160 degrees) at 10 MPH (9 knots; 4.6 m/s)
Visibility: 6 or more miles (10+ km)
Ceiling: at least 12,000 feet AGL
Clouds: few clouds at 1600 feet AGL
scattered clouds at 2600 feet AGL
Weather: no significant weather observed at this time

METAR text: FCPP 231300Z VRB04KT 9999 SCT016 SCT026 31/24 Q1008 NOSIG
Conditions at: FCPP (POINTE-NOIRE , CG) observed 1300 UTC 23 March 2019
Temperature: 31.0°C (88°F)
Dewpoint: 24.0°C (75°F) [RH = 66%]
Pressure (altimeter): 29.76 inches Hg (1008.0 mb)
Winds: variable direction winds at 5 MPH (4 knots; 2.1 m/s)
Visibility: 6 or more miles (10+ km)
Ceiling: at least 12,000 feet AGL
Clouds: scattered clouds at 1600 feet AGL
scattered clouds at 2600 feet AGL
Weather: no significant weather observed at this time

METAR text: FCPP 231200Z 12004KT 060V170 9999 SCT016 SCT026 30/25 Q1008 NOSIG
Conditions at: FCPP (POINTE-NOIRE , CG) observed 1200 UTC 23 March 2019
Temperature: 30.0°C (86°F)
Dewpoint: 25.0°C (77°F) [RH = 75%]
Pressure (altimeter): 29.76 inches Hg (1008.0 mb)
Winds: from the ESE (120 degrees) at 5 MPH (4 knots; 2.1 m/s)
Visibility: 6 or more miles (10+ km)
Ceiling: at least 12,000 feet AGL
Clouds: scattered clouds at 1600 feet AGL
scattered clouds at 2600 feet AGL
Weather: no significant weather observed at this time

METAR text: FCPP 231100Z 12004KT 060V200 9999 SCT015 29/24 Q1009 NOSIG
Conditions at: FCPP (POINTE-NOIRE , CG) observed 1100 UTC 23 March 2019
Temperature: 29.0°C (84°F)
Dewpoint: 24.0°C (75°F) [RH = 74%]
Pressure (altimeter): 29.79 inches Hg (1009.0 mb)
Winds: from the ESE (120 degrees) at 5 MPH (4 knots; 2.1 m/s)
Visibility: 6 or more miles (10+ km)
Ceiling: at least 12,000 feet AGL
Clouds: scattered clouds at 1500 feet AGL
Weather: no significant weather observed at this time

METAR text: FCPP 231000Z 03005KT 330V060 9999 SCT014 SCT026 28/25 Q1010 NOSIG
Conditions at: FCPP (POINTE-NOIRE , CG) observed 1000 UTC 23 March 2019
Temperature: 28.0°C (82°F)
Dewpoint: 25.0°C (77°F) [RH = 84%]
Pressure (altimeter): 29.82 inches Hg (1010.0 mb)
Winds: from the NNE (30 degrees) at 6 MPH (5 knots; 2.6 m/s)
Visibility: 6 or more miles (10+ km)
Ceiling: at least 12,000 feet AGL
Clouds: scattered clouds at 1400 feet AGL
scattered clouds at 2600 feet AGL
Weather: no significant weather observed at this time

METAR text: FCPP 230900Z 07006KT 020V110 9999 SCT013 BKN023 28/24 Q1011 NOSIG
Conditions at: FCPP (POINTE-NOIRE , CG) observed 0900 UTC 23 March 2019
Temperature: 28.0°C (82°F)
Dewpoint: 24.0°C (75°F) [RH = 79%]
Pressure (altimeter): 29.85 inches Hg (1011.0 mb)
Winds: from the ENE (70 degrees) at 7 MPH (6 knots; 3.1 m/s)
Visibility: 6 or more miles (10+ km)
Ceiling: 2300 feet AGL
Clouds: scattered clouds at 1300 feet AGL
broken clouds at 2300 feet AGL
Weather: no significant weather observed at this time

METAR text: FCPP 230800Z 05006KT 9999 SCT010 25/24 Q1010 NOSIG
Conditions at: FCPP (POINTE-NOIRE , CG) observed 0800 UTC 23 March 2019
Temperature: 25.0°C (77°F)
Dewpoint: 24.0°C (75°F) [RH = 94%]
Pressure (altimeter): 29.82 inches Hg (1010.0 mb)
Winds: from the NE (50 degrees) at 7 MPH (6 knots; 3.1 m/s)
Visibility: 6 or more miles (10+ km)
Ceiling: at least 12,000 feet AGL
Clouds: scattered clouds at 1000 feet AGL
Weather: no significant weather observed at this time

METAR text: FCPP 230700Z 05004KT 020V100 9999 SCT010 BKN023 FEW030CB 25/24 Q1010 NOSIG
Conditions at: FCPP (POINTE-NOIRE , CG) observed 0700 UTC 23 March 2019
Temperature: 25.0°C (77°F)
Dewpoint: 24.0°C (75°F) [RH = 94%]
Pressure (altimeter): 29.82 inches Hg (1010.0 mb)
Winds: from the NE (50 degrees) at 5 MPH (4 knots; 2.1 m/s)
Visibility: 6 or more miles (10+ km)
Ceiling: 2300 feet AGL
Clouds: scattered clouds at 1000 feet AGL
broken clouds at 2300 feet AGL
few clouds at 3000 feet AGL
Weather: no significant weather observed at this time

METAR text: FCPP 230600Z 00000KT 9999 SCT010 BKN020 FEW030CB 25/24 Q1009 NOSIG
Conditions at: FCPP (POINTE-NOIRE , CG) observed 0600 UTC 23 March 2019
Temperature: 25.0°C (77°F)
Dewpoint: 24.0°C (75°F) [RH = 94%]
Pressure (altimeter): 29.79 inches Hg (1009.0 mb)
Winds: calm
Visibility: 6 or more miles (10+ km)
Ceiling: 2000 feet AGL
Clouds: scattered clouds at 1000 feet AGL
broken clouds at 2000 feet AGL
few clouds at 3000 feet AGL
Weather: no significant weather observed at this time

METAR text: FCPP 230500Z 17003KT 9000 TS FEW010 SCT020 FEW030CB 24/23 Q1008 BECMG NSW
Conditions at: FCPP (POINTE-NOIRE , CG) observed 0500 UTC 23 March 2019
Temperature: 24.0°C (75°F)
Dewpoint: 23.0°C (73°F) [RH = 94%]
Pressure (altimeter): 29.76 inches Hg (1008.0 mb)
Winds: from the S (170 degrees) at 3 MPH (3 knots; 1.5 m/s)
Visibility: 6 miles ( 9 km)
Ceiling: at least 12,000 feet AGL
Clouds: few clouds at 1000 feet AGL
scattered clouds at 2000 feet AGL
few clouds at 3000 feet AGL
Weather: TS  (thunderstorm)

METAR text: FCPP 230400Z 05003KT 010V090 8000 -TSRA FEW010 BKN020 FEW030CB 23/23 Q1009 NOSIG
Conditions at: FCPP (POINTE-NOIRE , CG) observed 0400 UTC 23 March 2019
Temperature: 23.0°C (73°F)
Dewpoint: 23.0°C (73°F) [RH = 100%]
Pressure (altimeter): 29.79 inches Hg (1009.0 mb)
Winds: from the NE (50 degrees) at 3 MPH (3 knots; 1.5 m/s)
Visibility: 5 miles ( 8 km)
Ceiling: 2000 feet AGL
Clouds: few clouds at 1000 feet AGL
broken clouds at 2000 feet AGL
few clouds at 3000 feet AGL
Weather: -TSRA  (light rain associated with thunderstorm(s))

METAR text: FCPP 230300Z VRB03KT 8000 -TSRA FEW010 BKN020 FEW030CB 23/23 Q1009 NOSIG
Conditions at: FCPP (POINTE-NOIRE , CG) observed 0300 UTC 23 March 2019
Temperature: 23.0°C (73°F)
Dewpoint: 23.0°C (73°F) [RH = 100%]
Pressure (altimeter): 29.79 inches Hg (1009.0 mb)
Winds: variable direction winds at 3 MPH (3 knots; 1.5 m/s)
Visibility: 5 miles ( 8 km)
Ceiling: 2000 feet AGL
Clouds: few clouds at 1000 feet AGL
broken clouds at 2000 feet AGL
few clouds at 3000 feet AGL
Weather: -TSRA  (light rain associated with thunderstorm(s))

METAR text: FCPP 230200Z VRB01KT 8000 TS FEW010 BKN020 FEW030CB 23/23 Q1010 NOSIG
Conditions at: FCPP (POINTE-NOIRE , CG) observed 0200 UTC 23 March 2019
Temperature: 23.0°C (73°F)
Dewpoint: 23.0°C (73°F) [RH = 100%]
Pressure (altimeter): 29.82 inches Hg (1010.0 mb)
Winds: variable direction winds at 1 MPH (1 knots; 0.5 m/s)
Visibility: 5 miles ( 8 km)
Ceiling: 2000 feet AGL
Clouds: few clouds at 1000 feet AGL
broken clouds at 2000 feet AGL
few clouds at 3000 feet AGL
Weather: TS  (thunderstorm)

METAR text: FCPP 230100Z 16004KT 8000 -TSRA FEW010 BKN020 FEW030CB 23/23 Q1011 NOSIG
Conditions at: FCPP (POINTE-NOIRE , CG) observed 0100 UTC 23 March 2019
Temperature: 23.0°C (73°F)
Dewpoint: 23.0°C (73°F) [RH = 100%]
Pressure (altimeter): 29.85 inches Hg (1011.0 mb)
Winds: from the SSE (160 degrees) at 5 MPH (4 knots; 2.1 m/s)
Visibility: 5 miles ( 8 km)
Ceiling: 2000 feet AGL
Clouds: few clouds at 1000 feet AGL
broken clouds at 2000 feet AGL
few clouds at 3000 feet AGL
Weather: -TSRA  (light rain associated with thunderstorm(s))

METAR text: FCPP 222300Z 09004KT 050V130 6000 -TSRA SCT006 BKN016 SCT030CB 23/22 Q1011 NOSIG
Conditions at: FCPP (POINTE-NOIRE , CG) observed 2300 UTC 22 March 2019
Temperature: 23.0°C (73°F)
Dewpoint: 22.0°C (72°F) [RH = 94%]
Pressure (altimeter): 29.85 inches Hg (1011.0 mb)
Winds: from the E (90 degrees) at 5 MPH (4 knots; 2.1 m/s)
Visibility: 4 miles ( 6 km)
Ceiling: 1600 feet AGL
Clouds: scattered clouds at 600 feet AGL
broken clouds at 1600 feet AGL
scattered clouds at 3000 feet AGL
Weather: -TSRA  (light rain associated with thunderstorm(s))

METAR text: FCPP 222200Z 08005KT 010V140 3500 -TSRA SCT006 BKN016 SCT030CB 23/22 Q1010 NOSIG
Conditions at: FCPP (POINTE-NOIRE , CG) observed 2200 UTC 22 March 2019
Temperature: 23.0°C (73°F)
Dewpoint: 22.0°C (72°F) [RH = 94%]
Pressure (altimeter): 29.82 inches Hg (1010.0 mb)
Winds: from the E (80 degrees) at 6 MPH (5 knots; 2.6 m/s)
Visibility: 2.17 miles (3.49 km)
Ceiling: 1600 feet AGL
Clouds: scattered clouds at 600 feet AGL
broken clouds at 1600 feet AGL
scattered clouds at 3000 feet AGL
Weather: -TSRA  (light rain associated with thunderstorm(s))

METAR text: FCPP 222100Z 11004KT 070V150 9999 TS SCT010 FEW030CB 29/27 Q1010 NOSIG
Conditions at: FCPP (POINTE-NOIRE , CG) observed 2100 UTC 22 March 2019
Temperature: 29.0°C (84°F)
Dewpoint: 27.0°C (81°F) [RH = 89%]
Pressure (altimeter): 29.82 inches Hg (1010.0 mb)
Winds: from the ESE (110 degrees) at 5 MPH (4 knots; 2.1 m/s)
Visibility: 6 or more miles (10+ km)
Ceiling: at least 12,000 feet AGL
Clouds: scattered clouds at 1000 feet AGL
few clouds at 3000 feet AGL
Weather: TS  (thunderstorm)

Forecast for: FCPP (POINTE-NOIRE , CG)
Text: TAF FCPP 240500Z 2406/2506 18003KT 9999 SCT016
Forecast period: 0600 to 1300 UTC 24 March 2019
Forecast type: FROM: standard forecast or significant change
Winds: from the S (180 degrees) at 3 MPH (3 knots; 1.5 m/s)
Visibility: 6 or more miles 10+ km)
Ceiling: at least 12,000 feet AGL
Clouds: scattered clouds at 1600 feet AGL
Weather: no significant weather forecast for this period
Text: BECMG 2413/2415 ST020 FEW030CB
Forecast period: 1300 UTC 24 March 2019 to 0600 UTC 25 March 2019
Forecast type: BECOMING: Conditions expected to become as follows by 1500 UTC 24 March 2019
Winds: from the S (180 degrees) at 3 MPH (3 knots; 1.5 m/s)
Visibility: 6 or more miles 10+ km)
Ceiling: at least 12,000 feet AGL
Clouds: few clouds at 3000 feet AGL
Weather: no significant weather forecast for this period